Sayreville, NJ

9:12 AM EDT on November 01, 2014 (GMT -0400)
President Park | Change Station
CLOSE
Current Station
Personal Weather Station
Location: Parlin, NJ
Elevation: 114 ft
Nearby Weather Stations
Active Advisory: Coastal Flood Advisory Active Notice: Public Information Statement

Elev 114 ft 40.47 °N, 74.31 °W | Updated 13 seconds ago

Rain
Rain
44.1 °F
Feels Like 42 °F
N
4.1
Wind Variable Wind from NW
Gusts 12.1 mph

Today
High -- | Low -- °F
--% Chance of Precip.
Yesterday
High -- | Low -- °F
Precip. -- in
7:27 AM 5:54 PM
Waxing Gibbous, 66% visible
Pressure 29.87 in
Visibility 5.0 miles
Clouds Mostly Cloudy 4400 ft
Overcast 5000 ft
Windchill 42 °F
Dew Point 44 °F
Humidity 98%
Rainfall 0.27 in
Snow Depth Not available.
UV 0 out of 12
Pollen .10 out of 12
Air Quality Not available.
Flu Activity Not available.
METAR KLDJ 011315Z AUTO 01007KT 5SM -RA BKN044 OVC050 09/06 A2987 RMK AO2 P0002 T00900061

More Conditions Fewer Conditions

Pressure 29.87 in
Visibility 5.0 miles
Clouds Mostly Cloudy 4400 ft
Overcast 5000 ft
Windchill 42 °F
Dew Point 44 °F
Humidity 98%
Rainfall 0.27 in
Snow Depth Not available.
UV 0 out of 12
Pollen .10 out of 12
Air Quality Not available.
Flu Activity Not available.
METAR KLDJ 011315Z AUTO 01007KT 5SM -RA BKN044 OVC050 09/06 A2987 RMK AO2 P0002 T00900061

More Conditions Fewer Conditions

Nowcast | as of 6:58 am EDT on November 1, 2014

Light to moderate, with periods of heavier rainfall, will continue to affect the area this morning. Rainfall rates of one tenth to one quarter inch per hour will continue, with heavier rainfall rates up to one half inch possible, which will cause ponding on roadways and low lying areas. Drivers are urged to use caution while driving this morning.

×

10-Day Weather Forecast

Almanac

Astronomy

Nov. 01, 2014 Rise Set
Actual Time
Civil Twilight
Nautical Twilight
Astronomical Twilight
Moon
Length of Visible Light
Length of Day
Tomorrow will be .
, % of the Moon is Illuminated

Today's Extremes

State Highs State Lows

Community

WunderPhotos

Upload Photos

1,766,921 photos uploaded!

WunderBlogs® & News

Nearby

Air Quality

  Air Quality AQ Index Pollutant
Not available.

Snow Depth

Station Depth Elevation

Earthquake Activity

City Distance Mag. Time & Date
Minimum magnitude displayed is 2.5.

Coastal Water Temperatures

Place Temperature

Nearby Weather Stations